createdAt,value
2022-11-24T00:02:21.172Z,6.07
2022-11-24T00:12:23.871Z,5.82
2022-11-24T00:22:27.932Z,6.10
2022-11-24T00:32:30.896Z,5.65
2022-11-24T00:42:34.923Z,5.47
2022-11-24T00:52:37.780Z,5.43
2022-11-24T01:02:41.857Z,5.65
2022-11-24T01:12:44.538Z,5.72
2022-11-24T01:22:49.913Z,5.07
2022-11-24T01:32:52.564Z,5.35
2022-11-24T01:42:56.726Z,5.75
2022-11-24T01:52:59.694Z,4.93
2022-11-24T02:03:03.779Z,4.82
2022-11-24T02:13:06.535Z,4.43
2022-11-24T02:23:18.157Z,4.40
2022-11-24T02:33:25.193Z,3.97
2022-11-24T02:43:33.274Z,3.25
2022-11-24T02:53:37.503Z,3.60
2022-11-24T03:03:40.339Z,3.33
2022-11-24T03:13:44.357Z,3.08
2022-11-24T03:23:47.194Z,3.33
2022-11-24T03:33:51.483Z,3.45
2022-11-24T03:43:54.174Z,2.92
2022-11-24T03:53:58.193Z,3.25
2022-11-24T04:04:00.847Z,2.80
2022-11-24T04:14:07.910Z,2.92
2022-11-24T04:24:14.695Z,2.72
2022-11-24T04:34:18.671Z,2.75
2022-11-24T04:44:21.460Z,2.67
2022-11-24T04:54:25.669Z,2.10
2022-11-24T05:04:28.484Z,2.97
2022-11-24T05:14:32.788Z,2.88
2022-11-24T05:24:35.800Z,2.47
2022-11-24T05:34:40.014Z,1.65
2022-11-24T05:44:42.691Z,1.95
2022-11-24T05:54:46.647Z,2.72
2022-11-24T06:04:49.472Z,2.65
2022-11-24T06:14:53.459Z,2.00
2022-11-24T06:24:56.083Z,2.47
2022-11-24T06:35:00.082Z,3.35
2022-11-24T06:45:07.399Z,2.20
2022-11-24T06:55:13.047Z,2.33
2022-11-24T07:05:15.798Z,1.92
2022-11-24T07:15:19.838Z,1.65
2022-11-24T07:25:22.498Z,2.75
2022-11-24T07:35:26.531Z,2.30
2022-11-24T07:45:29.223Z,2.08
2022-11-24T07:55:33.248Z,2.83
2022-11-24T08:05:44.642Z,2.63
2022-11-24T08:15:58.435Z,2.88
2022-11-24T08:26:05.232Z,2.78
2022-11-24T08:36:11.277Z,2.53
2022-11-24T08:46:16.913Z,3.15
2022-11-24T08:56:21.095Z,3.17
2022-11-24T09:06:25.636Z,3.17
2022-11-24T09:16:30.333Z,3.35
2022-11-24T09:26:35.481Z,3.00
2022-11-24T09:36:39.547Z,2.83
2022-11-24T09:46:52.906Z,3.50
2022-11-24T09:57:00.791Z,3.28
2022-11-24T10:07:15.024Z,2.70
2022-11-24T10:17:35.964Z,2.85
2022-11-24T10:27:42.778Z,2.22
2022-11-24T10:37:54.755Z,2.33
2022-11-24T10:47:58.999Z,2.65
2022-11-24T10:58:16.780Z,2.45
2022-11-24T11:08:25.585Z,2.28
2022-11-24T11:18:34.386Z,2.00
2022-11-24T11:28:37.110Z,1.80
2022-11-24T11:38:42.337Z,1.80
2022-11-24T11:48:46.774Z,1.88
2022-11-24T11:59:10.516Z,2.70
2022-11-24T12:09:26.040Z,1.90
2022-11-24T12:19:42.159Z,2.90
2022-11-24T12:30:06.030Z,1.90
2022-11-24T12:40:15.973Z,2.05
2022-11-24T12:50:20.987Z,1.80
2022-11-24T13:00:30.788Z,2.15
2022-11-24T13:20:59.738Z,2.08
2022-11-24T13:31:11.664Z,3.55
2022-11-24T13:42:04.068Z,2.58
2022-11-24T13:52:41.292Z,2.58
2022-11-24T14:02:44.762Z,3.20
2022-11-24T14:12:48.811Z,2.83
2022-11-24T14:22:51.746Z,3.20
2022-11-24T14:32:56.785Z,3.53
2022-11-24T14:42:59.658Z,4.05
2022-11-24T14:53:03.652Z,4.10
2022-11-24T15:03:17.180Z,5.15
2022-11-24T15:13:22.713Z,4.57
2022-11-24T15:23:26.819Z,4.82
2022-11-24T15:33:31.563Z,4.03
2022-11-24T15:43:36.405Z,5.15
2022-11-24T15:53:43.969Z,4.65
2022-11-24T16:03:48.179Z,5.15
2022-11-24T16:13:54.194Z,4.97
2022-11-24T16:23:57.229Z,4.68
2022-11-24T16:34:01.221Z,6.72
2022-11-24T16:44:04.117Z,5.22
2022-11-24T16:54:08.327Z,6.15
2022-11-24T17:04:12.835Z,6.45
2022-11-24T17:14:17.209Z,6.20
2022-11-24T17:24:19.861Z,6.30
2022-11-24T17:34:23.857Z,7.47
2022-11-24T17:44:26.913Z,6.78
2022-11-24T17:54:45.915Z,6.55
2022-11-24T18:04:49.611Z,5.77
2022-11-24T18:14:53.609Z,6.00
2022-11-24T18:24:56.430Z,6.78
2022-11-24T18:35:00.477Z,7.43
2022-11-24T18:45:04.214Z,6.22
2022-11-24T18:55:09.616Z,8.23
2022-11-24T19:05:12.361Z,8.63
2022-11-24T19:15:16.443Z,7.88
2022-11-24T19:25:19.105Z,6.25
2022-11-24T19:35:23.313Z,6.20
2022-11-24T19:45:26.195Z,6.60
2022-11-24T19:55:30.259Z,7.47
2022-11-24T20:05:32.954Z,6.88
2022-11-24T20:15:37.150Z,6.97
2022-11-24T20:25:39.800Z,6.10
2022-11-24T20:35:43.825Z,6.53
2022-11-24T20:45:46.616Z,6.18
2022-11-24T20:55:50.697Z,5.78
2022-11-24T21:05:55.930Z,5.82
2022-11-24T21:16:01.375Z,6.15
2022-11-24T21:26:06.288Z,6.28
2022-11-24T21:36:12.660Z,5.38
2022-11-24T21:46:15.796Z,5.38
2022-11-24T21:56:21.446Z,5.57
2022-11-24T22:06:24.647Z,4.78
2022-11-24T22:16:28.775Z,5.93
2022-11-24T22:26:31.785Z,6.25
2022-11-24T22:36:37.002Z,5.05
2022-11-24T22:46:39.839Z,5.93
2022-11-24T22:56:43.802Z,5.70
2022-11-24T23:06:46.426Z,5.97
2022-11-24T23:16:50.673Z,5.43
2022-11-24T23:26:53.993Z,5.53
2022-11-24T23:36:58.172Z,5.97
2022-11-24T23:47:00.833Z,6.13
2022-11-24T23:57:05.007Z,6.10
